Time;durP1;ratioP1;P1;durP2;ratioP2;P2;SDS_P1;SDS_P2;PMS_P1;PMS_P2;Temp;Humidity;BMP_temperature;BMP_pressure;BME280_temperature;BME280_humidity;BME280_pressure;Samples;Min_cycle;Max_cycle;Signal;HPM_P1;HPM_P2
2022/03/07 00:00:55;;;;;;;33.77;19.77;;;6.60;19.10;;;;;;4988068;28;20202;-74
2022/03/07 00:03:20;;;;;;;32.27;18.03;;;6.00;19.50;;;;;;4978990;28;20209;-73
2022/03/07 00:05:46;;;;;;;35.87;20.87;;;6.00;20.00;;;;;;4986335;28;20493;-74
2022/03/07 00:08:13;;;;;;;34.60;20.53;;;5.60;20.10;;;;;;4986870;28;20190;-73
2022/03/07 00:10:38;;;;;;;36.38;20.70;;;6.10;19.80;;;;;;4975211;28;20205;-73
2022/03/07 00:13:04;;;;;;;32.00;19.10;;;6.30;19.20;;;;;;4989005;28;20265;-73
2022/03/07 00:15:30;;;;;;;35.83;21.00;;;6.10;20.10;;;;;;4984880;28;20679;-73
2022/03/07 00:17:56;;;;;;;33.93;20.70;;;6.60;19.40;;;;;;4975579;28;20425;-72
2022/03/07 00:20:22;;;;;;;33.47;19.57;;;6.60;19.10;;;;;;4981931;28;20250;-73
2022/03/07 00:22:47;;;;;;;39.80;21.20;;;6.70;19.30;;;;;;4979668;28;20688;-74
2022/03/07 00:25:16;;;;;;;33.20;20.27;;;6.90;19.60;;;;;;4981104;28;20417;-74
2022/03/07 00:27:42;;;;;;;41.88;20.73;;;6.60;19.20;;;;;;4976723;28;20189;-73
2022/03/07 00:30:08;;;;;;;34.47;19.20;;;6.30;19.10;;;;;;4985093;28;20637;-73
2022/03/07 00:32:34;;;;;;;33.25;19.17;;;6.30;19.80;;;;;;4982858;28;20175;-73
2022/03/07 00:35:00;;;;;;;36.10;21.10;;;6.20;19.70;;;;;;4989410;28;20720;-74
2022/03/07 00:37:26;;;;;;;38.93;20.30;;;6.30;19.60;;;;;;4977672;28;20179;-73
2022/03/07 00:39:51;;;;;;;35.57;20.33;;;6.30;20.10;;;;;;4982551;28;20345;-73
2022/03/07 00:42:17;;;;;;;36.27;21.77;;;6.50;19.70;;;;;;4983161;28;20199;-73
2022/03/07 00:44:42;;;;;;;30.83;18.57;;;6.60;19.80;;;;;;4982273;28;20528;-73
2022/03/07 00:47:08;;;;;;;37.17;21.13;;;6.40;19.80;;;;;;4973903;28;20696;-74
2022/03/07 00:49:34;;;;;;;38.50;20.60;;;6.90;19.80;;;;;;4988293;28;20558;-73
2022/03/07 00:51:59;;;;;;;38.20;20.30;;;6.90;19.80;;;;;;4985088;28;20174;-73
2022/03/07 00:54:26;;;;;;;42.20;21.37;;;6.50;19.60;;;;;;4982777;28;20654;-73
2022/03/07 00:56:51;;;;;;;35.80;21.15;;;6.00;20.20;;;;;;4990904;28;20190;-73
2022/03/07 00:59:17;;;;;;;32.90;19.67;;;5.80;20.60;;;;;;4980820;28;20239;-73
2022/03/07 01:01:43;;;;;;;36.10;20.27;;;6.10;20.50;;;;;;4984403;28;20304;-73
2022/03/07 01:04:08;;;;;;;35.90;20.17;;;6.10;20.30;;;;;;4980355;28;20177;-73
2022/03/07 01:06:34;;;;;;;39.70;18.93;;;6.20;20.10;;;;;;4976527;28;20182;-73
2022/03/07 01:09:00;;;;;;;35.20;20.40;;;6.60;20.30;;;;;;4981041;28;20182;-73
2022/03/07 01:11:25;;;;;;;33.50;18.90;;;6.80;20.40;;;;;;4978839;28;20194;-72
2022/03/07 01:13:51;;;;;;;33.53;20.17;;;6.80;20.30;;;;;;4986891;28;20238;-73
2022/03/07 01:16:17;;;;;;;36.37;20.97;;;6.30;20.20;;;;;;4978763;28;20170;-74
2022/03/07 01:18:43;;;;;;;36.77;20.77;;;6.30;20.30;;;;;;4983234;28;20280;-74
2022/03/07 01:21:09;;;;;;;37.72;21.45;;;6.30;20.10;;;;;;4971852;28;20208;-73
2022/03/07 01:23:34;;;;;;;33.87;19.50;;;6.40;20.30;;;;;;4981681;28;20194;-74
2022/03/07 01:26:02;;;;;;;38.57;21.10;;;6.40;19.90;;;;;;4972889;28;20429;-72
2022/03/07 01:28:27;;;;;;;32.17;20.10;;;6.40;20.10;;;;;;4976938;28;20213;-75
2022/03/07 01:30:53;;;;;;;35.47;19.77;;;6.60;19.80;;;;;;4977468;28;20236;-73
2022/03/07 01:33:18;;;;;;;36.47;19.70;;;6.20;20.30;;;;;;4969416;28;20218;-73
2022/03/07 01:35:44;;;;;;;34.33;19.83;;;6.40;21.80;;;;;;4970471;28;20202;-74
2022/03/07 01:38:10;;;;;;;34.67;20.53;;;6.20;20.90;;;;;;4979734;28;20183;-74
2022/03/07 01:40:35;;;;;;;33.70;19.20;;;6.30;20.00;;;;;;4982295;28;20291;-75
2022/03/07 01:43:01;;;;;;;32.23;19.30;;;6.20;20.70;;;;;;4979437;28;20202;-74
2022/03/07 01:45:27;;;;;;;35.87;20.27;;;6.40;20.60;;;;;;4978080;28;20608;-74
2022/03/07 01:47:53;;;;;;;36.13;19.90;;;6.10;20.50;;;;;;4980484;28;20257;-73
2022/03/07 01:50:20;;;;;;;33.33;18.23;;;5.60;21.30;;;;;;4970372;28;20206;-73
2022/03/07 01:52:50;;;;;;;32.55;17.83;;;6.00;20.60;;;;;;4978481;28;20179;-74
2022/03/07 01:55:16;;;;;;;32.63;18.00;;;5.80;20.40;;;;;;4981173;28;20272;-74
2022/03/07 01:57:44;;;;;;;33.78;18.45;;;5.70;20.90;;;;;;4983390;28;20209;-74
2022/03/07 02:00:14;;;;;;;30.23;17.65;;;5.70;20.80;;;;;;4989382;28;20272;-73
2022/03/07 02:02:41;;;;;;;30.33;17.40;;;5.50;20.70;;;;;;4988121;28;20209;-75
2022/03/07 02:05:08;;;;;;;33.08;18.23;;;5.50;21.10;;;;;;4980786;28;20646;-74
2022/03/07 02:07:33;;;;;;;30.00;16.33;;;5.30;20.80;;;;;;4987697;28;20182;-72
2022/03/07 02:09:59;;;;;;;28.67;16.30;;;5.40;21.60;;;;;;4974330;28;20198;-73
2022/03/07 02:12:25;;;;;;;27.63;15.70;;;5.70;20.90;;;;;;4977822;28;20193;-73
2022/03/07 02:14:51;;;;;;;33.47;17.90;;;5.70;20.40;;;;;;4976888;28;20189;-74
2022/03/07 02:17:17;;;;;;;28.63;16.27;;;5.80;20.60;;;;;;4976096;28;20178;-74
2022/03/07 02:19:42;;;;;;;30.20;17.20;;;5.50;20.50;;;;;;4970566;28;20526;-73
2022/03/07 02:22:10;;;;;;;28.47;16.43;;;5.80;21.10;;;;;;4979356;28;20202;-74
2022/03/07 02:24:37;;;;;;;26.73;15.48;;;5.70;20.60;;;;;;4980126;28;20547;-73
2022/03/07 02:27:06;;;;;;;30.55;16.40;;;5.70;21.10;;;;;;4980760;28;20174;-74
2022/03/07 02:29:32;;;;;;;31.08;14.95;;;5.40;20.70;;;;;;4980020;28;20243;-73
2022/03/07 02:31:58;;;;;;;28.13;16.50;;;5.00;20.90;;;;;;4991159;28;20186;-73
2022/03/07 02:34:24;;;;;;;32.33;15.50;;;5.10;21.50;;;;;;4976549;28;20720;-73
2022/03/07 02:36:50;;;;;;;28.60;15.35;;;5.30;21.40;;;;;;4981005;28;20428;-73
2022/03/07 02:39:16;;;;;;;26.43;14.80;;;5.30;21.50;;;;;;4985127;28;20186;-73
2022/03/07 02:41:42;;;;;;;26.50;15.70;;;5.60;20.30;;;;;;4973965;28;20607;-74
2022/03/07 02:44:08;;;;;;;27.48;15.95;;;5.60;20.50;;;;;;4983604;28;20196;-73
2022/03/07 02:46:34;;;;;;;27.60;15.10;;;5.60;20.90;;;;;;4982364;28;20179;-73
2022/03/07 02:49:00;;;;;;;29.05;15.18;;;5.40;20.30;;;;;;4985954;28;20208;-74
2022/03/07 02:51:26;;;;;;;29.10;16.10;;;5.20;21.00;;;;;;4977566;28;20578;-74
2022/03/07 02:53:52;;;;;;;25.90;15.50;;;5.30;21.10;;;;;;4971010;28;20210;-74
2022/03/07 02:56:18;;;;;;;23.63;14.47;;;5.30;20.70;;;;;;4974514;28;20265;-75
2022/03/07 02:58:44;;;;;;;27.37;16.20;;;6.10;20.60;;;;;;4985731;28;20831;-73
2022/03/07 03:01:10;;;;;;;26.43;15.40;;;5.50;20.60;;;;;;4978631;28;20190;-75
2022/03/07 03:03:36;;;;;;;27.88;14.52;;;6.80;21.70;;;;;;4976747;28;20214;-74
2022/03/07 03:06:02;;;;;;;23.40;13.88;;;5.30;21.90;;;;;;4988961;28;20232;-74
2022/03/07 03:08:28;;;;;;;29.17;15.60;;;5.30;20.50;;;;;;4985527;28;20178;-75
2022/03/07 03:10:54;;;;;;;28.77;16.17;;;5.30;20.90;;;;;;4979923;28;20284;-74
2022/03/07 03:13:22;;;;;;;30.95;15.52;;;5.30;21.00;;;;;;4978866;28;20704;-74
2022/03/07 03:15:49;;;;;;;53.25;15.60;;;5.30;20.70;;;;;;4979641;28;20181;-74
2022/03/07 03:18:16;;;;;;;29.33;15.48;;;5.00;21.40;;;;;;4987182;28;20183;-73
2022/03/07 03:20:42;;;;;;;25.17;14.63;;;4.90;20.90;;;;;;4980243;28;20202;-74
2022/03/07 03:23:08;;;;;;;27.63;15.25;;;4.80;21.20;;;;;;4979020;28;20236;-74
2022/03/07 03:25:34;;;;;;;25.73;14.93;;;4.90;21.90;;;;;;4968795;28;20214;-73
2022/03/07 03:27:59;;;;;;;25.83;14.43;;;5.10;20.70;;;;;;4983855;28;20174;-73
2022/03/07 03:30:25;;;;;;;27.10;15.20;;;5.10;21.00;;;;;;4983040;28;20213;-73
2022/03/07 03:32:51;;;;;;;26.53;14.73;;;5.30;20.30;;;;;;4990020;28;20650;-74
2022/03/07 03:35:16;;;;;;;27.87;15.13;;;4.90;20.80;;;;;;4992850;28;20661;-75
2022/03/07 03:37:42;;;;;;;31.20;15.03;;;4.90;21.50;;;;;;4984678;28;20186;-74
2022/03/07 03:40:10;;;;;;;22.93;13.97;;;4.80;21.60;;;;;;4976689;28;20273;-73
2022/03/07 03:42:36;;;;;;;26.00;14.93;;;4.60;21.90;;;;;;4979960;28;20271;-74
2022/03/07 03:45:05;;;;;;;24.30;15.50;;;4.60;21.70;;;;;;4978769;28;20714;-72
2022/03/07 03:47:31;;;;;;;25.58;15.07;;;4.70;21.00;;;;;;4985720;28;20178;-74
2022/03/07 03:49:57;;;;;;;28.20;16.08;;;4.30;21.70;;;;;;4980305;28;20205;-75
2022/03/07 03:52:23;;;;;;;28.20;15.57;;;4.30;22.40;;;;;;4985587;28;20218;-74
2022/03/07 03:54:49;;;;;;;30.27;15.60;;;4.40;21.60;;;;;;4981337;28;20187;-75
2022/03/07 03:57:15;;;;;;;31.48;15.45;;;4.60;21.90;;;;;;4975434;28;20195;-74
2022/03/07 03:59:40;;;;;;;26.43;16.63;;;4.60;21.60;;;;;;4979856;28;20182;-74
2022/03/07 04:02:06;;;;;;;36.23;16.07;;;4.30;22.10;;;;;;4987415;28;20284;-73
2022/03/07 04:04:32;;;;;;;26.37;16.27;;;4.20;22.10;;;;;;4981665;28;20639;-74
2022/03/07 04:06:58;;;;;;;27.30;15.87;;;4.20;23.00;;;;;;4984566;28;20692;-74
2022/03/07 04:09:23;;;;;;;34.57;16.87;;;4.10;22.20;;;;;;4979892;28;20933;-73
2022/03/07 04:11:49;;;;;;;31.50;16.50;;;4.10;22.60;;;;;;4978907;28;20174;-73
2022/03/07 04:14:16;;;;;;;28.83;16.92;;;4.00;22.30;;;;;;4984977;28;20181;-74
2022/03/07 04:16:42;;;;;;;33.55;16.33;;;4.10;22.40;;;;;;4981293;28;20206;-74
2022/03/07 04:19:10;;;;;;;27.35;15.60;;;4.50;21.50;;;;;;4981830;28;20186;-74
2022/03/07 04:21:39;;;;;;;29.45;17.00;;;4.40;21.80;;;;;;4988913;28;20263;-74
2022/03/07 04:24:09;;;;;;;26.77;15.75;;;4.30;22.30;;;;;;4977586;28;20271;-74
2022/03/07 04:26:35;;;;;;;32.67;16.80;;;4.20;22.10;;;;;;4989615;28;20269;-73
2022/03/07 04:29:05;;;;;;;32.23;16.83;;;4.10;23.00;;;;;;4989287;28;20262;-73
2022/03/07 04:31:31;;;;;;;29.33;16.35;;;4.00;22.80;;;;;;4980660;28;20876;-73
2022/03/07 04:33:57;;;;;;;32.28;15.85;;;3.90;22.50;;;;;;4983591;28;20183;-73
2022/03/07 04:36:22;;;;;;;33.47;16.80;;;4.10;23.00;;;;;;4981545;28;20179;-73
2022/03/07 04:38:48;;;;;;;25.97;15.70;;;4.00;23.30;;;;;;4984828;28;20198;-73
2022/03/07 04:41:14;;;;;;;29.27;16.70;;;4.00;23.30;;;;;;4985429;28;20205;-73
2022/03/07 04:43:40;;;;;;;33.00;17.45;;;4.10;23.20;;;;;;4983526;28;20694;-73
2022/03/07 04:46:09;;;;;;;31.70;16.53;;;4.10;22.70;;;;;;4981199;28;20210;-73
2022/03/07 04:48:35;;;;;;;28.77;16.38;;;4.00;22.70;;;;;;4974472;28;20183;-73
2022/03/07 04:51:02;;;;;;;27.38;15.90;;;4.20;23.10;;;;;;4989961;28;20198;-73
2022/03/07 04:53:27;;;;;;;28.75;16.67;;;4.00;22.70;;;;;;4974698;28;20182;-73
2022/03/07 04:55:53;;;;;;;32.37;16.50;;;4.00;22.90;;;;;;4976300;28;20190;-73
2022/03/07 04:58:19;;;;;;;33.40;16.57;;;4.10;22.70;;;;;;4984844;28;20597;-73
2022/03/07 05:00:45;;;;;;;31.80;16.77;;;4.00;23.00;;;;;;4984310;28;20210;-73
2022/03/07 05:03:11;;;;;;;33.10;18.10;;;4.00;23.00;;;;;;4974969;28;20470;-73
2022/03/07 05:05:37;;;;;;;33.72;17.58;;;4.20;22.50;;;;;;4987012;28;20174;-73
2022/03/07 05:08:02;;;;;;;31.00;16.47;;;4.20;22.10;;;;;;4976288;28;20251;-74
2022/03/07 05:10:28;;;;;;;31.70;16.80;;;4.10;22.70;;;;;;4978727;28;20201;-73
2022/03/07 05:12:54;;;;;;;31.17;15.97;;;4.20;22.50;;;;;;4982189;28;20491;-73
2022/03/07 05:15:19;;;;;;;33.80;17.67;;;4.30;22.20;;;;;;4974364;28;20241;-73
2022/03/07 05:17:53;;;;;;;34.27;17.40;;;4.10;22.30;;;;;;4974664;28;20175;-73
2022/03/07 05:20:19;;;;;;;38.85;17.98;;;4.10;22.70;;;;;;4969460;28;20678;-74
2022/03/07 05:22:45;;;;;;;35.25;17.77;;;4.10;22.50;;;;;;4986703;28;20221;-73
2022/03/07 05:25:12;;;;;;;32.77;17.90;;;3.90;22.80;;;;;;4981489;28;20193;-73
2022/03/07 05:27:38;;;;;;;29.95;16.75;;;3.80;23.20;;;;;;4972978;28;20198;-73
2022/03/07 05:30:06;;;;;;;37.17;18.88;;;3.90;22.80;;;;;;4973850;28;20281;-73
2022/03/07 05:32:31;;;;;;;36.40;19.13;;;3.80;22.70;;;;;;4986424;28;20316;-73
2022/03/07 05:34:58;;;;;;;37.90;19.30;;;3.80;23.70;;;;;;4984656;28;20262;-73
2022/03/07 05:37:24;;;;;;;39.67;19.75;;;3.80;23.70;;;;;;4980883;28;20665;-73
2022/03/07 05:39:49;;;;;;;34.05;17.55;;;3.60;23.50;;;;;;4980184;28;20218;-74
2022/03/07 05:42:15;;;;;;;34.73;18.30;;;3.60;24.20;;;;;;4988610;28;20743;-74
2022/03/07 05:44:41;;;;;;;33.90;19.23;;;3.50;24.00;;;;;;4986652;28;20261;-73
2022/03/07 05:47:07;;;;;;;36.08;19.27;;;3.60;23.90;;;;;;4983531;28;20436;-73
2022/03/07 05:49:33;;;;;;;34.97;18.70;;;3.90;23.10;;;;;;4980360;28;20179;-73
2022/03/07 05:51:58;;;;;;;31.87;18.17;;;3.60;23.60;;;;;;4973411;28;20620;-73
2022/03/07 05:54:24;;;;;;;35.40;18.77;;;3.50;23.50;;;;;;4988884;28;20194;-73
2022/03/07 05:56:50;;;;;;;35.20;19.27;;;3.40;23.80;;;;;;4972539;28;20284;-73
2022/03/07 05:59:15;;;;;;;41.20;19.07;;;3.30;23.80;;;;;;4979727;28;20186;-73
2022/03/07 06:01:41;;;;;;;36.00;18.70;;;3.20;24.40;;;;;;4978593;28;20733;-73
2022/03/07 06:04:08;;;;;;;35.20;18.30;;;3.30;24.10;;;;;;4980416;28;20673;-73
2022/03/07 06:06:34;;;;;;;42.35;20.30;;;3.30;24.10;;;;;;4982809;28;20538;-73
2022/03/07 06:09:00;;;;;;;42.67;20.30;;;3.20;24.20;;;;;;4977548;28;20257;-73
2022/03/07 06:11:25;;;;;;;39.50;20.07;;;3.40;24.40;;;;;;4974110;28;20446;-73
2022/03/07 06:13:51;;;;;;;40.43;19.60;;;3.50;24.30;;;;;;4987786;28;20747;-73
2022/03/07 06:16:16;;;;;;;35.60;19.47;;;3.80;24.00;;;;;;4975215;28;20553;-73
2022/03/07 06:18:42;;;;;;;36.93;19.07;;;3.90;23.00;;;;;;4980411;28;20196;-73
2022/03/07 06:21:08;;;;;;;53.87;19.60;;;4.10;22.80;;;;;;4972267;28;20268;-73
2022/03/07 06:23:34;;;;;;;38.00;18.97;;;3.80;22.90;;;;;;4980659;28;20226;-73
2022/03/07 06:25:59;;;;;;;39.33;19.80;;;3.50;23.90;;;;;;4976786;28;20500;-73
2022/03/07 06:28:25;;;;;;;35.07;19.07;;;3.80;23.70;;;;;;4982331;28;20189;-73
2022/03/07 06:30:51;;;;;;;33.83;18.40;;;3.60;23.80;;;;;;4974566;28;20557;-73
2022/03/07 06:33:17;;;;;;;34.80;18.60;;;3.80;23.30;;;;;;4980327;28;20249;-73
2022/03/07 06:35:43;;;;;;;40.53;18.87;;;3.90;23.70;;;;;;4987497;28;20260;-73
2022/03/07 06:38:08;;;;;;;45.45;20.73;;;3.80;23.60;;;;;;4971835;28;20669;-73
2022/03/07 06:40:34;;;;;;;42.47;19.20;;;3.50;24.00;;;;;;4971985;28;20214;-73
2022/03/07 06:43:03;;;;;;;41.53;19.80;;;3.70;23.90;;;;;;4980281;28;20273;-73
2022/03/07 06:45:30;;;;;;;39.67;19.00;;;3.80;23.70;;;;;;4972499;28;20669;-74
2022/03/07 06:47:56;;;;;;;48.75;19.20;;;3.90;23.10;;;;;;4979401;28;20230;-73
2022/03/07 06:50:22;;;;;;;57.30;18.90;;;3.90;23.40;;;;;;4972521;28;20221;-74
2022/03/07 06:52:47;;;;;;;62.27;19.60;;;4.00;23.10;;;;;;4972398;28;20654;-73
2022/03/07 06:55:13;;;;;;;43.90;20.40;;;3.80;23.90;;;;;;4984408;28;20182;-73
2022/03/07 06:57:40;;;;;;;44.60;19.80;;;3.70;23.90;;;;;;4987149;28;20178;-73
2022/03/07 07:00:10;;;;;;;36.03;18.38;;;3.70;23.80;;;;;;4976091;28;20206;-73
2022/03/07 07:02:36;;;;;;;43.25;20.30;;;3.70;23.50;;;;;;4980517;28;20214;-73
2022/03/07 07:05:04;;;;;;;44.67;19.58;;;3.50;23.70;;;;;;4980138;28;20179;-73
2022/03/07 07:07:31;;;;;;;43.28;20.15;;;3.90;24.10;;;;;;4978148;28;20185;-73
2022/03/07 07:09:57;;;;;;;46.28;21.13;;;4.00;23.30;;;;;;4975182;28;20217;-74
2022/03/07 07:12:23;;;;;;;47.47;20.90;;;3.60;23.90;;;;;;4980706;28;20190;-74
2022/03/07 07:14:49;;;;;;;40.13;19.60;;;3.90;23.40;;;;;;4979883;28;20191;-73
2022/03/07 07:17:15;;;;;;;45.88;19.90;;;4.30;23.00;;;;;;4982009;28;20253;-77
2022/03/07 07:19:41;;;;;;;41.85;21.10;;;3.90;23.30;;;;;;4979625;28;20302;-76
2022/03/07 07:22:07;;;;;;;42.47;20.20;;;4.00;23.70;;;;;;4972964;28;21014;-76
2022/03/07 07:24:33;;;;;;;43.83;21.80;;;4.20;23.80;;;;;;4983229;28;20185;-80
2022/03/07 07:26:58;;;;;;;42.60;20.37;;;4.40;23.10;;;;;;4984702;28;20201;-76
2022/03/07 07:29:24;;;;;;;38.23;20.30;;;4.50;23.00;;;;;;4975566;28;20446;-75
2022/03/07 07:31:51;;;;;;;49.30;20.83;;;4.60;22.80;;;;;;4953188;28;20202;-75
2022/03/07 07:34:17;;;;;;;65.25;20.92;;;5.00;22.20;;;;;;4966959;28;20185;-75
2022/03/07 07:36:43;;;;;;;42.28;20.23;;;5.20;21.60;;;;;;4970347;28;20604;-75
2022/03/07 07:39:09;;;;;;;42.83;20.60;;;5.40;21.70;;;;;;4979378;28;20261;-75
2022/03/07 07:41:35;;;;;;;42.60;20.93;;;5.40;21.20;;;;;;4990104;28;20479;-76
2022/03/07 07:44:01;;;;;;;43.47;21.60;;;5.30;21.60;;;;;;4976189;28;20437;-75
2022/03/07 07:46:27;;;;;;;52.13;21.77;;;5.20;21.40;;;;;;4973020;28;20171;-75
2022/03/07 07:48:53;;;;;;;35.93;20.13;;;5.10;21.40;;;;;;4984349;28;20182;-74
2022/03/07 07:51:18;;;;;;;40.70;20.20;;;5.10;21.40;;;;;;4974110;28;20194;-75
2022/03/07 07:53:44;;;;;;;45.23;21.07;;;5.00;21.90;;;;;;4982079;28;20430;-75
2022/03/07 07:56:10;;;;;;;35.60;19.80;;;5.10;21.80;;;;;;4979165;28;20244;-74
2022/03/07 07:58:35;;;;;;;38.37;20.93;;;5.10;21.20;;;;;;4971268;28;20201;-76
2022/03/07 08:01:01;;;;;;;39.07;20.53;;;4.80;22.00;;;;;;4972012;28;20206;-74
2022/03/07 08:03:26;;;;;;;39.53;20.80;;;4.70;22.50;;;;;;4979209;28;20206;-73
2022/03/07 08:05:52;;;;;;;41.97;20.83;;;4.40;22.30;;;;;;4984932;28;20574;-74
2022/03/07 08:08:18;;;;;;;37.43;20.13;;;4.80;22.30;;;;;;4980513;28;20182;-77
2022/03/07 08:10:44;;;;;;;36.85;20.95;;;5.10;21.60;;;;;;4983027;28;20292;-76
2022/03/07 08:13:11;;;;;;;35.03;20.77;;;4.60;22.10;;;;;;4973823;28;20714;-75
2022/03/07 08:18:13;;;;;;;36.90;20.48;;;4.50;21.90;;;;;;4964430;28;20819;-76
2022/03/07 08:20:39;;;;;;;39.63;20.80;;;4.50;22.50;;;;;;4965779;28;20179;-71
2022/03/07 08:23:06;;;;;;;34.80;19.47;;;4.30;22.40;;;;;;4957276;28;20714;-75
2022/03/07 08:25:32;;;;;;;42.42;22.00;;;4.20;23.10;;;;;;4957008;28;20172;-74
2022/03/07 08:27:59;;;;;;;36.97;20.35;;;4.80;22.30;;;;;;4960555;28;20229;-74
2022/03/07 08:30:26;;;;;;;40.55;20.60;;;5.00;21.90;;;;;;4973762;28;20175;-74
2022/03/07 08:32:52;;;;;;;39.22;19.67;;;5.10;21.80;;;;;;4974035;28;20653;-74
2022/03/07 08:35:20;;;;;;;35.05;20.40;;;5.30;21.90;;;;;;4974429;28;20626;-73
2022/03/07 08:37:48;;;;;;;38.65;20.27;;;5.50;20.80;;;;;;4972744;28;20743;-73
2022/03/07 08:40:16;;;;;;;36.58;20.00;;;5.60;21.00;;;;;;4974283;28;20553;-73
2022/03/07 08:42:43;;;;;;;43.10;21.90;;;5.70;20.80;;;;;;4968470;28;20210;-74
2022/03/07 08:45:09;;;;;;;40.35;21.70;;;5.50;20.70;;;;;;4962428;28;20659;-74
2022/03/07 08:47:40;;;;;;;41.50;19.90;;;5.70;20.70;;;;;;4970741;28;20210;-74
2022/03/07 08:50:11;;;;;;;36.38;19.77;;;5.90;20.60;;;;;;4973703;28;20171;-74
2022/03/07 08:52:37;;;;;;;37.80;19.95;;;6.00;20.30;;;;;;4973024;28;20187;-75
2022/03/07 08:55:05;;;;;;;33.70;18.73;;;6.00;19.50;;;;;;4973019;28;20186;-75
2022/03/07 08:57:31;;;;;;;35.22;19.23;;;5.30;20.80;;;;;;4965813;28;20222;-71
2022/03/07 08:59:57;;;;;;;37.77;19.73;;;5.40;20.80;;;;;;4970718;28;20176;-72
2022/03/07 09:02:22;;;;;;;35.70;21.43;;;5.50;20.30;;;;;;4973869;28;20460;-72
2022/03/07 09:04:48;;;;;;;33.17;20.17;;;5.60;20.50;;;;;;4966124;28;20187;-73
2022/03/07 09:07:14;;;;;;;38.43;20.03;;;5.70;20.70;;;;;;4982641;28;20203;-72
2022/03/07 09:09:40;;;;;;;47.40;20.60;;;6.00;20.30;;;;;;4972224;28;20508;-72
2022/03/07 09:12:07;;;;;;;34.77;20.20;;;6.20;19.70;;;;;;4971337;28;20174;-72
2022/03/07 09:14:34;;;;;;;37.53;18.58;;;6.50;19.30;;;;;;4973318;28;20646;-73
2022/03/07 09:17:00;;;;;;;36.10;19.92;;;7.10;19.40;;;;;;4964627;28;20226;-73
2022/03/07 09:19:26;;;;;;;36.53;20.05;;;6.80;19.90;;;;;;4969698;28;20175;-72
2022/03/07 09:21:52;;;;;;;34.28;19.27;;;7.00;19.50;;;;;;4959942;28;20662;-71
2022/03/07 09:24:17;;;;;;;44.53;21.37;;;6.30;19.50;;;;;;4972302;28;20230;-70
2022/03/07 09:26:43;;;;;;;36.60;20.13;;;6.10;19.40;;;;;;4971234;28;20741;-71
2022/03/07 09:29:10;;;;;;;41.50;20.90;;;6.40;19.20;;;;;;4973230;28;20179;-71
2022/03/07 09:31:36;;;;;;;47.13;20.63;;;6.50;19.30;;;;;;4969796;28;20179;-72
2022/03/07 09:34:02;;;;;;;31.90;18.90;;;6.40;19.60;;;;;;4959720;28;20990;-71
2022/03/07 09:36:28;;;;;;;33.97;19.13;;;6.60;18.80;;;;;;4967629;28;20675;-71
2022/03/07 09:38:54;;;;;;;32.80;19.20;;;6.80;18.60;;;;;;4965838;28;20190;-71
2022/03/07 09:41:19;;;;;;;32.53;19.00;;;6.60;18.20;;;;;;4961904;28;20271;-71
2022/03/07 09:43:46;;;;;;;41.00;19.47;;;6.80;18.50;;;;;;4969997;28;20474;-71
2022/03/07 09:46:14;;;;;;;34.13;18.98;;;6.20;18.80;;;;;;4971148;28;20572;-71
2022/03/07 09:48:41;;;;;;;35.40;18.58;;;6.60;18.40;;;;;;4958239;28;20655;-71
2022/03/07 09:51:06;;;;;;;38.47;18.55;;;6.30;18.60;;;;;;4962954;28;20179;-71
2022/03/07 09:53:32;;;;;;;35.77;18.87;;;6.50;18.80;;;;;;4971951;28;20685;-71
2022/03/07 09:55:58;;;;;;;36.20;19.83;;;6.90;18.90;;;;;;4971325;28;20194;-72
2022/03/07 09:58:24;;;;;;;34.40;19.80;;;7.10;18.00;;;;;;4968492;28;20187;-72
2022/03/07 10:00:49;;;;;;;34.27;19.17;;;7.30;17.80;;;;;;4961863;28;20458;-73
2022/03/07 10:03:18;;;;;;;33.50;19.27;;;7.60;17.70;;;;;;4969364;28;20218;-72
2022/03/07 10:05:46;;;;;;;34.95;19.50;;;7.60;17.70;;;;;;4968683;28;20174;-70
2022/03/07 10:08:27;;;;;;;34.05;20.35;;;6.80;18.30;;;;;;4972443;28;20187;-72
2022/03/07 10:10:55;;;;;;;28.23;18.17;;;6.80;18.60;;;;;;4972589;28;20193;-71
2022/03/07 10:13:22;;;;;;;34.83;19.02;;;7.30;17.80;;;;;;4964820;28;20222;-71
2022/03/07 10:15:57;;;;;;;35.60;19.60;;;7.50;17.90;;;;;;4959557;28;20216;-72
2022/03/07 10:18:22;;;;;;;30.63;19.10;;;7.30;17.70;;;;;;4972751;28;20177;-70
2022/03/07 10:20:54;;;;;;;31.37;18.60;;;7.80;17.60;;;;;;4964612;28;20266;-71
2022/03/07 10:23:21;;;;;;;30.45;17.80;;;8.50;16.70;;;;;;4966537;28;20658;-73
2022/03/07 10:25:48;;;;;;;37.70;18.48;;;8.90;16.00;;;;;;4972080;28;20195;-71
2022/03/07 10:28:14;;;;;;;30.40;18.60;;;8.70;16.90;;;;;;4964066;28;20826;-71
2022/03/07 10:30:40;;;;;;;32.33;18.67;;;8.70;16.20;;;;;;4971638;28;20190;-71
2022/03/07 10:33:09;;;;;;;29.88;18.75;;;8.80;16.10;;;;;;4969430;28;20231;-71
2022/03/07 10:35:48;;;;;;;30.27;18.13;;;8.50;16.60;;;;;;4960583;28;20217;-72
2022/03/07 10:38:16;;;;;;;38.10;19.02;;;8.40;16.30;;;;;;4970226;28;20222;-71
2022/03/07 10:40:47;;;;;;;31.20;17.98;;;7.90;17.00;;;;;;4971147;28;20182;-72
2022/03/07 10:43:13;;;;;;;31.83;18.05;;;7.90;16.80;;;;;;4963670;28;20305;-71
2022/03/07 10:45:54;;;;;;;33.67;19.77;;;7.60;17.00;;;;;;4971301;28;20198;-72
2022/03/07 10:48:21;;;;;;;37.30;20.20;;;7.40;16.80;;;;;;4963409;28;20580;-72
2022/03/07 10:50:48;;;;;;;33.70;18.55;;;7.80;16.50;;;;;;4971445;28;20174;-71
2022/03/07 10:53:14;;;;;;;29.73;18.58;;;7.70;16.70;;;;;;4970610;28;20183;-70
2022/03/07 10:55:40;;;;;;;29.02;18.83;;;7.60;16.80;;;;;;4964495;28;20608;-72
2022/03/07 10:58:07;;;;;;;33.17;18.77;;;7.00;17.60;;;;;;4971127;28;20225;-72
2022/03/07 11:00:32;;;;;;;27.20;17.90;;;7.30;17.50;;;;;;4963172;28;20430;-72
2022/03/07 11:02:58;;;;;;;30.87;18.77;;;8.20;16.70;;;;;;4963665;28;20214;-71
2022/03/07 11:05:25;;;;;;;32.80;19.23;;;9.20;15.30;;;;;;4963348;28;20191;-72
2022/03/07 11:07:50;;;;;;;30.73;19.00;;;10.20;14.30;;;;;;4967472;28;20248;-70
2022/03/07 11:10:17;;;;;;;30.27;19.13;;;11.00;13.80;;;;;;4962506;28;20931;-71
2022/03/07 11:21:24;;;;;;;27.03;18.17;;;13.10;10.10;;;;;;4998704;28;20580;-72
2022/03/07 11:23:50;;;;;;;29.90;19.13;;;12.60;10.70;;;;;;5003656;28;20483;-72
2022/03/07 11:26:20;;;;;;;26.90;18.13;;;12.50;10.00;;;;;;5001879;28;20924;-77
2022/03/07 11:28:51;;;;;;;31.13;19.27;;;12.90;10.80;;;;;;5009157;28;20459;-70
2022/03/07 11:31:26;;;;;;;24.70;17.30;;;13.50;10.60;;;;;;5006007;28;20846;-73
2022/03/07 11:33:53;;;;;;;27.60;18.90;;;14.40;8.20;;;;;;5026232;22;21037;-75
2022/03/07 11:36:20;;;;;;;33.80;19.00;;;14.40;7.60;;;;;;4999999;28;20502;-75
2022/03/07 11:39:05;;;;;;;30.50;18.90;;;14.10;8.00;;;;;;4995464;28;20512;-75
2022/03/07 11:41:36;;;;;;;28.17;19.90;;;14.30;7.40;;;;;;5005155;28;20432;-75
2022/03/07 11:44:14;;;;;;;25.67;19.17;;;14.90;7.20;;;;;;5130171;22;20539;-74
2022/03/07 11:46:42;;;;;;;24.87;17.53;;;13.80;7.60;;;;;;5008572;28;20945;-74
2022/03/07 11:49:10;;;;;;;27.73;18.00;;;14.20;7.90;;;;;;5004550;28;20427;-75
2022/03/07 11:51:39;;;;;;;27.90;18.90;;;14.30;7.80;;;;;;5000495;28;20932;-75
2022/03/07 11:54:06;;;;;;;25.97;19.20;;;13.70;7.70;;;;;;5006058;28;20531;-75
2022/03/07 11:56:35;;;;;;;27.67;17.90;;;14.80;7.30;;;;;;5013108;28;20893;-75
2022/03/07 11:59:04;;;;;;;30.33;18.50;;;13.30;9.10;;;;;;5007017;28;20420;-76
2022/03/07 12:01:31;;;;;;;28.67;18.83;;;14.30;7.50;;;;;;5006216;28;20454;-76
2022/03/07 12:04:14;;;;;;;28.00;18.40;;;14.00;7.20;;;;;;5013438;28;21009;-76
2022/03/07 12:06:58;;;;;;;27.83;18.80;;;14.20;8.10;;;;;;5012158;28;20432;-76
2022/03/07 12:09:32;;;;;;;25.00;17.57;;;14.40;6.80;;;;;;5008477;28;20530;-77
2022/03/07 12:12:03;;;;;;;31.50;18.07;;;13.30;7.50;;;;;;5006770;28;20848;-76
2022/03/07 12:14:31;;;;;;;32.03;19.00;;;13.10;8.40;;;;;;5013875;28;20893;-78
2022/03/07 12:17:00;;;;;;;25.87;18.30;;;13.10;8.50;;;;;;5013277;28;20442;-75
2022/03/07 12:19:28;;;;;;;26.60;19.20;;;13.40;7.50;;;;;;4998886;28;20456;-77
2022/03/07 12:21:54;;;;;;;29.07;19.17;;;14.20;7.50;;;;;;5008096;28;20482;-77
2022/03/07 12:24:22;;;;;;;25.97;18.80;;;15.40;6.90;;;;;;5005228;28;20785;-77
2022/03/07 12:26:53;;;;;;;33.53;19.17;;;16.80;5.60;;;;;;5011964;28;20923;-77
2022/03/07 12:29:21;;;;;;;26.60;19.23;;;14.90;6.20;;;;;;5005581;28;20559;-77
2022/03/07 12:31:54;;;;;;;26.27;18.50;;;15.20;6.80;;;;;;5005174;28;20422;-77
2022/03/07 12:34:28;;;;;;;26.93;19.17;;;14.90;6.50;;;;;;5011742;28;20486;-77
2022/03/07 12:36:58;;;;;;;30.77;19.30;;;14.90;6.80;;;;;;5004985;28;20424;-77
2022/03/07 12:39:24;;;;;;;29.27;19.00;;;15.20;5.60;;;;;;5012370;28;20412;-77
2022/03/07 12:41:49;;;;;;;28.33;19.40;;;13.60;6.70;;;;;;5012642;28;20439;-77
2022/03/07 12:44:15;;;;;;;28.20;19.63;;;13.70;8.40;;;;;;5012995;28;20518;-77